createdAt,value
2023-04-18T00:02:11.939Z,6.71
2023-04-18T00:04:42.869Z,6.72
2023-04-18T00:07:14.334Z,6.71
2023-04-18T00:09:45.725Z,6.72
2023-04-18T00:12:16.520Z,6.74
2023-04-18T00:14:47.152Z,6.76
2023-04-18T00:17:17.955Z,6.75
2023-04-18T00:19:48.684Z,6.77
2023-04-18T00:22:19.375Z,6.79
2023-04-18T00:24:50.456Z,6.80
2023-04-18T00:27:19.776Z,6.79
2023-04-18T00:29:50.461Z,6.78
2023-04-18T00:32:21.192Z,6.79
2023-04-18T00:34:52.049Z,6.78
2023-04-18T00:37:22.684Z,6.78
2023-04-18T00:39:53.429Z,6.81
2023-04-18T00:42:24.144Z,6.80
2023-04-18T00:44:55.401Z,6.79
2023-04-18T00:47:26.120Z,6.77
2023-04-18T00:49:57.000Z,6.76
2023-04-18T00:52:28.548Z,6.75
2023-04-18T00:54:59.610Z,6.77
2023-04-18T00:57:28.690Z,6.78
2023-04-18T01:00:01.233Z,6.77
2023-04-18T01:02:33.395Z,6.77
2023-04-18T01:05:05.085Z,6.80
2023-04-18T01:07:37.945Z,6.81
2023-04-18T01:10:10.737Z,6.81
2023-04-18T01:12:41.994Z,6.83
2023-04-18T01:15:12.869Z,6.82
2023-04-18T01:17:43.474Z,6.82
2023-04-18T01:20:16.477Z,6.80
2023-04-18T01:22:47.103Z,6.80
2023-04-18T01:25:17.780Z,6.81
2023-04-18T01:27:48.397Z,6.82
2023-04-18T01:30:19.222Z,6.84
2023-04-18T01:32:49.878Z,6.88
2023-04-18T01:35:20.824Z,6.90
2023-04-18T01:37:51.749Z,6.87
2023-04-18T01:40:22.833Z,6.88
2023-04-18T01:42:53.589Z,6.87
2023-04-18T01:45:24.525Z,6.82
2023-04-18T01:47:53.688Z,6.80
2023-04-18T01:50:24.798Z,6.76
2023-04-18T01:52:53.815Z,6.79
2023-04-18T01:55:31.024Z,6.80
2023-04-18T01:58:01.667Z,6.80
2023-04-18T02:00:34.019Z,6.82
2023-04-18T02:03:04.862Z,6.83
2023-04-18T02:05:35.785Z,6.82
2023-04-18T02:08:06.544Z,6.79
2023-04-18T02:10:37.251Z,6.79
2023-04-18T02:13:07.999Z,6.78
2023-04-18T02:15:38.893Z,6.77
2023-04-18T02:18:09.666Z,6.75
2023-04-18T02:20:40.390Z,6.74
2023-04-18T02:23:11.335Z,6.73
2023-04-18T02:25:41.964Z,6.73
2023-04-18T02:28:12.751Z,6.75
2023-04-18T02:30:43.420Z,6.76
2023-04-18T02:33:14.177Z,6.75
2023-04-18T02:35:44.776Z,6.77
2023-04-18T02:38:15.456Z,6.78
2023-04-18T02:40:46.104Z,6.77
2023-04-18T02:43:16.777Z,6.78
2023-04-18T02:45:47.384Z,6.78
2023-04-18T02:48:18.198Z,6.81
2023-04-18T02:50:48.868Z,6.84
2023-04-18T02:53:19.550Z,6.88
2023-04-18T02:55:50.179Z,6.88
2023-04-18T02:58:20.852Z,6.88
2023-04-18T03:00:55.105Z,6.91
2023-04-18T03:03:25.831Z,6.92
2023-04-18T03:05:56.529Z,6.92
2023-04-18T03:08:27.407Z,6.94
2023-04-18T03:10:58.068Z,6.93
2023-04-18T03:13:28.706Z,6.93
2023-04-18T03:15:59.352Z,6.91
2023-04-18T03:18:30.137Z,6.91
2023-04-18T03:21:00.826Z,6.91
2023-04-18T03:23:31.521Z,6.89
2023-04-18T03:26:02.362Z,6.90
2023-04-18T03:28:33.273Z,6.91
2023-04-18T03:31:03.937Z,6.90
2023-04-18T03:33:34.589Z,6.90
2023-04-18T03:36:05.807Z,6.91
2023-04-18T03:38:36.619Z,6.92
2023-04-18T03:41:07.350Z,6.93
2023-04-18T03:43:38.092Z,6.93
2023-04-18T03:46:08.782Z,6.93
2023-04-18T03:48:39.499Z,6.94
2023-04-18T03:51:10.155Z,6.93
2023-04-18T03:53:40.797Z,6.96
2023-04-18T03:56:11.736Z,6.98
2023-04-18T03:58:42.376Z,6.99
2023-04-18T04:01:13.035Z,7.02
2023-04-18T04:03:43.811Z,7.05
2023-04-18T04:06:13.163Z,7.07
2023-04-18T04:08:43.818Z,7.06
2023-04-18T04:11:14.551Z,7.06
2023-04-18T04:13:45.249Z,7.07
2023-04-18T04:16:15.874Z,7.07
2023-04-18T04:18:46.599Z,7.07
2023-04-18T04:21:18.001Z,7.08
2023-04-18T04:23:50.107Z,7.13
2023-04-18T04:26:20.824Z,7.15
2023-04-18T04:28:51.581Z,7.17
2023-04-18T04:31:22.333Z,7.19
2023-04-18T04:33:53.032Z,7.23
2023-04-18T04:36:24.839Z,7.24
2023-04-18T04:38:55.498Z,7.28
2023-04-18T04:41:26.157Z,7.29
2023-04-18T04:43:56.809Z,7.30
2023-04-18T04:46:28.291Z,7.29
2023-04-18T04:48:58.996Z,7.26
2023-04-18T04:51:29.755Z,7.30
2023-04-18T04:54:00.392Z,7.32
2023-04-18T04:56:31.396Z,7.34
2023-04-18T04:59:00.594Z,7.36
2023-04-18T05:01:31.323Z,7.36
2023-04-18T05:04:02.266Z,7.41
2023-04-18T05:06:31.527Z,7.46
2023-04-18T05:09:02.193Z,7.49
2023-04-18T05:11:32.887Z,7.50
2023-04-18T05:14:03.634Z,7.51
2023-04-18T05:16:34.405Z,7.54
2023-04-18T05:19:05.178Z,7.60
2023-04-18T05:21:36.169Z,7.62
2023-04-18T05:24:05.325Z,7.66
2023-04-18T05:26:36.302Z,7.69
2023-04-18T05:29:07.142Z,7.72
2023-04-18T05:31:37.826Z,7.74
2023-04-18T05:34:08.517Z,7.76
2023-04-18T05:36:39.182Z,7.82
2023-04-18T05:39:09.834Z,7.87
2023-04-18T05:41:40.607Z,7.92
2023-04-18T05:44:11.360Z,7.97
2023-04-18T05:46:42.181Z,8.01
2023-04-18T05:49:11.429Z,8.05
2023-04-18T05:51:42.019Z,8.05
2023-04-18T05:54:12.964Z,8.03
2023-04-18T05:56:43.997Z,8.08
2023-04-18T05:59:15.114Z,8.12
2023-04-18T06:01:44.181Z,8.18
2023-04-18T06:04:47.574Z,8.23
2023-04-18T06:07:08.647Z,8.28
2023-04-18T06:09:39.382Z,8.32
2023-04-18T06:12:11.523Z,8.36
2023-04-18T06:14:42.751Z,8.40
2023-04-18T06:17:14.152Z,8.43
2023-04-18T06:19:43.297Z,8.44
2023-04-18T06:22:14.149Z,8.47
2023-04-18T06:24:45.552Z,8.55
2023-04-18T06:27:30.171Z,8.64
2023-04-18T06:30:06.906Z,8.71
2023-04-18T06:32:37.582Z,8.79
2023-04-18T06:35:10.923Z,8.85
2023-04-18T06:37:41.685Z,8.87
2023-04-18T06:40:14.977Z,8.90
2023-04-18T06:42:46.058Z,8.89
2023-04-18T06:45:16.755Z,8.85
2023-04-18T06:47:48.984Z,8.85
2023-04-18T06:50:21.093Z,8.83
2023-04-18T06:52:51.848Z,8.80
2023-04-18T06:55:22.880Z,8.76
2023-04-18T06:57:53.554Z,8.77
2023-04-18T07:00:24.456Z,8.84
2023-04-18T07:02:55.259Z,8.90
2023-04-18T07:05:26.065Z,8.91
2023-04-18T07:07:56.778Z,8.94
2023-04-18T07:10:27.649Z,8.96
2023-04-18T07:12:58.452Z,9.00
2023-04-18T07:15:29.193Z,9.05
2023-04-18T07:17:59.903Z,9.12
2023-04-18T07:20:30.562Z,9.21
2023-04-18T07:23:01.238Z,9.29
2023-04-18T07:25:32.098Z,9.43
2023-04-18T07:28:03.294Z,9.58
2023-04-18T07:30:34.146Z,9.75
2023-04-18T07:33:04.965Z,9.81
2023-04-18T07:35:34.389Z,9.84
2023-04-18T07:38:05.082Z,9.87
2023-04-18T07:40:36.289Z,9.92
2023-04-18T07:43:06.971Z,9.95
2023-04-18T07:45:37.678Z,9.98
2023-04-18T07:48:10.653Z,10.07
2023-04-18T07:50:41.368Z,10.17
2023-04-18T07:53:11.983Z,10.31
2023-04-18T07:55:42.739Z,10.37
2023-04-18T07:58:13.649Z,10.46
2023-04-18T08:00:44.406Z,10.55
2023-04-18T08:03:15.212Z,10.64
2023-04-18T08:05:46.155Z,10.80
2023-04-18T08:08:17.002Z,10.90
2023-04-18T08:10:47.650Z,11.00
2023-04-18T08:13:18.364Z,11.02
2023-04-18T08:15:49.683Z,11.04
2023-04-18T08:18:20.452Z,11.11
2023-04-18T08:20:51.294Z,11.22
2023-04-18T08:23:21.958Z,11.35
2023-04-18T08:25:52.701Z,11.48
2023-04-18T08:28:23.643Z,11.45
2023-04-18T08:30:52.746Z,11.48
2023-04-18T08:33:23.744Z,11.62
2023-04-18T08:35:52.865Z,11.94
2023-04-18T08:38:23.573Z,12.09
2023-04-18T08:40:54.477Z,12.42
2023-04-18T08:43:23.571Z,12.53
2023-04-18T08:46:00.107Z,12.54
2023-04-18T08:48:30.935Z,12.70
2023-04-18T08:51:02.281Z,12.86
2023-04-18T08:53:34.965Z,13.12
2023-04-18T08:56:05.894Z,13.38
2023-04-18T08:58:34.999Z,13.43
2023-04-18T09:01:05.841Z,13.30
2023-04-18T09:03:39.452Z,13.26
2023-04-18T09:06:14.537Z,13.16
2023-04-18T09:08:55.067Z,13.24
2023-04-18T09:11:27.762Z,13.37
2023-04-18T09:13:58.509Z,13.40
2023-04-18T09:16:44.324Z,13.40
2023-04-18T09:19:16.468Z,13.50
2023-04-18T09:21:56.851Z,13.35
2023-04-18T09:24:28.448Z,13.39
2023-04-18T09:26:59.386Z,13.33
2023-04-18T09:29:44.681Z,13.27
2023-04-18T09:32:23.542Z,13.21
2023-04-18T09:34:56.627Z,13.19
2023-04-18T09:37:51.077Z,13.16
2023-04-18T09:40:35.802Z,13.16
2023-04-18T09:43:20.202Z,13.24
2023-04-18T09:45:51.907Z,13.32
2023-04-18T09:48:23.416Z,13.33
2023-04-18T09:50:59.391Z,13.42
2023-04-18T09:53:30.800Z,13.35
2023-04-18T09:56:02.867Z,13.20
2023-04-18T09:58:34.452Z,13.19
2023-04-18T10:01:06.271Z,13.19
2023-04-18T10:03:47.277Z,13.24
2023-04-18T10:06:16.888Z,13.42
2023-04-18T10:08:51.798Z,13.58
2023-04-18T10:11:23.054Z,13.69
2023-04-18T10:13:56.766Z,13.86
2023-04-18T10:16:28.106Z,13.79
2023-04-18T10:19:18.877Z,13.70
2023-04-18T10:21:54.904Z,13.73
2023-04-18T10:24:52.358Z,13.74
2023-04-18T10:27:58.789Z,13.72
2023-04-18T10:30:51.130Z,13.86
2023-04-18T10:33:40.957Z,13.89
2023-04-18T10:36:18.889Z,13.85
2023-04-18T10:38:52.561Z,13.85
2023-04-18T10:41:25.297Z,13.96
2023-04-18T10:44:19.409Z,14.00
2023-04-18T10:47:30.257Z,13.92
2023-04-18T10:50:06.033Z,13.89
2023-04-18T10:52:37.471Z,13.88
2023-04-18T10:55:20.986Z,13.95
2023-04-18T10:57:51.696Z,13.94
2023-04-18T11:00:24.500Z,13.98
2023-04-18T11:02:56.539Z,14.13
2023-04-18T11:05:28.921Z,14.20
2023-04-18T11:07:59.683Z,14.44
2023-04-18T11:10:30.429Z,14.65
2023-04-18T11:13:05.371Z,14.80
2023-04-18T11:15:38.006Z,14.85
2023-04-18T11:18:10.862Z,14.97
2023-04-18T11:21:19.358Z,15.03
2023-04-18T11:23:50.939Z,15.13
2023-04-18T11:26:26.188Z,15.11
2023-04-18T11:29:06.091Z,15.09
2023-04-18T11:31:37.051Z,15.02
2023-04-18T11:34:22.711Z,14.87
2023-04-18T11:36:54.135Z,14.70
2023-04-18T11:39:23.718Z,14.62
2023-04-18T11:41:54.628Z,14.53
2023-04-18T11:44:26.807Z,14.49
2023-04-18T11:46:57.438Z,14.52
2023-04-18T11:49:29.884Z,14.41
2023-04-18T11:52:00.626Z,14.33
2023-04-18T11:54:42.712Z,14.22
2023-04-18T11:57:25.163Z,14.17
2023-04-18T11:59:57.927Z,14.23
2023-04-18T12:02:40.191Z,14.36
2023-04-18T12:05:12.135Z,14.39
2023-04-18T12:07:45.426Z,14.54
2023-04-18T12:10:28.295Z,14.73
2023-04-18T12:12:59.845Z,14.86
2023-04-18T12:15:31.441Z,14.92
2023-04-18T12:18:04.948Z,15.02
2023-04-18T12:20:37.477Z,15.20
2023-04-18T12:23:08.157Z,15.43
2023-04-18T12:25:39.323Z,15.65
2023-04-18T12:28:16.780Z,15.87
2023-04-18T12:30:47.579Z,15.94
2023-04-18T12:33:18.263Z,15.78
2023-04-18T12:35:49.715Z,15.72
2023-04-18T12:38:21.600Z,15.76
2023-04-18T12:40:52.997Z,15.76
2023-04-18T12:43:23.593Z,15.74
2023-04-18T12:45:54.902Z,15.75
2023-04-18T12:48:25.644Z,15.81
2023-04-18T12:50:56.690Z,15.95
2023-04-18T12:53:27.395Z,16.07
2023-04-18T12:55:58.060Z,16.06
2023-04-18T12:58:27.194Z,16.17
2023-04-18T13:00:57.963Z,16.20
2023-04-18T13:03:28.783Z,16.10
2023-04-18T13:05:59.690Z,16.02
2023-04-18T13:08:29.077Z,15.92
2023-04-18T13:10:59.718Z,15.84
2023-04-18T13:13:32.200Z,15.84
2023-04-18T13:16:04.699Z,15.75
2023-04-18T13:18:35.360Z,15.73
2023-04-18T13:21:06.340Z,15.72
2023-04-18T13:23:37.222Z,15.84
2023-04-18T13:26:08.368Z,15.95
2023-04-18T13:28:39.268Z,15.87
2023-04-18T13:31:09.942Z,15.80
2023-04-18T13:33:41.045Z,15.76
2023-04-18T13:36:11.928Z,15.75
2023-04-18T13:38:43.077Z,15.67
2023-04-18T13:41:13.908Z,15.59
2023-04-18T13:43:44.646Z,15.52
2023-04-18T13:46:15.290Z,15.44
2023-04-18T13:48:45.996Z,15.44
2023-04-18T13:51:15.208Z,15.59
2023-04-18T13:53:45.798Z,15.71
2023-04-18T13:56:16.445Z,15.85
2023-04-18T13:58:47.059Z,16.01
2023-04-18T14:01:17.811Z,16.14
2023-04-18T14:03:47.144Z,16.21
2023-04-18T14:06:18.485Z,16.23
2023-04-18T14:08:50.550Z,16.26
2023-04-18T14:11:21.531Z,16.28
2023-04-18T14:13:52.112Z,16.27
2023-04-18T14:16:23.495Z,16.17
2023-04-18T14:18:54.421Z,16.11
2023-04-18T14:21:25.429Z,16.06
2023-04-18T14:23:56.412Z,15.94
2023-04-18T14:26:27.134Z,15.85
2023-04-18T14:28:57.882Z,15.77
2023-04-18T14:31:28.585Z,15.71
2023-04-18T14:33:59.226Z,15.69
2023-04-18T14:36:30.026Z,15.61
2023-04-18T14:38:59.144Z,15.48
2023-04-18T14:41:29.833Z,15.50
2023-04-18T14:44:00.488Z,15.53
2023-04-18T14:46:31.275Z,15.66
2023-04-18T14:49:00.325Z,15.76
2023-04-18T14:51:30.917Z,15.82
2023-04-18T14:54:01.557Z,15.91
2023-04-18T14:56:32.238Z,15.88
2023-04-18T14:59:02.954Z,15.77
2023-04-18T15:01:33.646Z,15.68
2023-04-18T15:04:04.713Z,15.62
2023-04-18T15:06:35.499Z,15.62
2023-04-18T15:09:06.249Z,15.61
2023-04-18T15:11:35.395Z,15.63
2023-04-18T15:14:06.170Z,15.50
2023-04-18T15:16:36.818Z,15.51
2023-04-18T15:19:07.680Z,15.54
2023-04-18T15:21:36.733Z,15.53
2023-04-18T15:24:08.288Z,15.55
2023-04-18T15:26:39.263Z,15.58
2023-04-18T15:29:10.045Z,15.55
2023-04-18T15:31:39.392Z,15.45
2023-04-18T15:34:10.138Z,15.33
2023-04-18T15:36:40.773Z,15.24
2023-04-18T15:39:11.439Z,15.12
2023-04-18T15:41:42.085Z,15.03
2023-04-18T15:44:13.189Z,14.91
2023-04-18T15:46:43.957Z,14.83
2023-04-18T15:49:14.762Z,14.83
2023-04-18T15:51:43.861Z,14.84
2023-04-18T15:54:14.980Z,14.88
2023-04-18T15:56:45.950Z,14.83
2023-04-18T15:59:16.603Z,14.81
2023-04-18T16:01:47.313Z,14.80
2023-04-18T16:04:18.378Z,14.79
2023-04-18T16:06:49.169Z,14.83
2023-04-18T16:09:19.872Z,14.87
2023-04-18T16:11:50.471Z,14.90
2023-04-18T16:14:21.135Z,14.91
2023-04-18T16:16:51.901Z,14.90
2023-04-18T16:19:22.548Z,14.87
2023-04-18T16:21:53.172Z,14.81
2023-04-18T16:24:23.880Z,14.73
2023-04-18T16:26:53.036Z,14.70
2023-04-18T16:29:23.858Z,14.66
2023-04-18T16:31:54.624Z,14.67
2023-04-18T16:34:25.343Z,14.72
2023-04-18T16:36:55.597Z,14.75
2023-04-18T16:39:26.488Z,14.73
2023-04-18T16:41:57.085Z,14.63
2023-04-18T16:44:28.247Z,14.55
2023-04-18T16:46:59.034Z,14.48
2023-04-18T16:49:28.281Z,14.42
2023-04-18T16:51:58.962Z,14.35
2023-04-18T16:54:29.851Z,14.27
2023-04-18T16:56:59.012Z,14.22
2023-04-18T16:59:29.694Z,14.19
2023-04-18T17:02:00.497Z,14.15
2023-04-18T17:04:29.809Z,14.11
2023-04-18T17:07:00.688Z,14.04
2023-04-18T17:09:31.680Z,13.97
2023-04-18T17:12:02.320Z,13.91
2023-04-18T17:14:33.010Z,13.83
2023-04-18T17:17:03.945Z,13.76
2023-04-18T17:19:33.218Z,13.68
2023-04-18T17:22:03.961Z,13.59
2023-04-18T17:24:34.666Z,13.51
2023-04-18T17:27:05.700Z,13.42
2023-04-18T17:29:36.548Z,13.32
2023-04-18T17:32:09.027Z,13.25
2023-04-18T17:34:39.773Z,13.18
2023-04-18T17:37:10.526Z,13.14
2023-04-18T17:39:41.404Z,13.10
2023-04-18T17:42:12.081Z,13.06
2023-04-18T17:44:42.750Z,13.01
2023-04-18T17:47:13.402Z,12.99
2023-04-18T17:49:44.084Z,12.96
2023-04-18T17:52:14.728Z,12.93
2023-04-18T17:54:45.677Z,12.91
2023-04-18T17:57:16.717Z,12.89
2023-04-18T17:59:47.447Z,12.88
2023-04-18T18:02:18.271Z,12.87
2023-04-18T18:04:47.428Z,12.86
2023-04-18T18:07:18.484Z,12.84
2023-04-18T18:09:49.272Z,12.83
2023-04-18T18:12:19.927Z,12.81
2023-04-18T18:14:50.579Z,12.80
2023-04-18T18:17:21.380Z,12.79
2023-04-18T18:19:50.746Z,12.78
2023-04-18T18:22:21.512Z,12.77
2023-04-18T18:24:52.151Z,12.76
2023-04-18T18:27:22.996Z,12.76
2023-04-18T18:29:53.926Z,12.76
2023-04-18T18:32:25.025Z,12.76
2023-04-18T18:34:55.700Z,12.75
2023-04-18T18:37:26.374Z,12.75
2023-04-18T18:39:55.875Z,12.75
2023-04-18T18:42:26.503Z,12.74
2023-04-18T18:44:57.183Z,12.73
2023-04-18T18:47:27.923Z,12.71
2023-04-18T18:49:57.256Z,12.71
2023-04-18T18:52:27.951Z,12.68
2023-04-18T18:54:58.878Z,12.67
2023-04-18T18:57:29.504Z,12.66
2023-04-18T19:00:00.207Z,12.63
2023-04-18T19:02:31.636Z,12.61
2023-04-18T19:05:03.161Z,12.60
2023-04-18T19:07:32.459Z,12.58
2023-04-18T19:10:03.323Z,12.56
2023-04-18T19:12:33.958Z,12.54
2023-04-18T19:15:05.267Z,12.53
2023-04-18T19:17:36.062Z,12.51
2023-04-18T19:20:09.991Z,12.49
2023-04-18T19:22:40.898Z,12.47
2023-04-18T19:25:10.491Z,12.43
2023-04-18T19:27:41.115Z,12.39
2023-04-18T19:30:12.934Z,12.35
2023-04-18T19:32:43.618Z,12.32
2023-04-18T19:35:14.440Z,12.30
2023-04-18T19:37:45.402Z,12.28
2023-04-18T19:40:16.265Z,12.24
2023-04-18T19:42:47.060Z,12.21
2023-04-18T19:45:17.965Z,12.19
2023-04-18T19:47:47.115Z,12.15
2023-04-18T19:50:19.831Z,12.09
2023-04-18T19:52:50.590Z,12.04
2023-04-18T19:55:21.699Z,11.98
2023-04-18T19:57:56.295Z,11.92
2023-04-18T20:00:27.133Z,11.87
2023-04-18T20:02:57.941Z,11.80
2023-04-18T20:05:29.209Z,11.76
2023-04-18T20:08:00.632Z,11.70
2023-04-18T20:10:31.902Z,11.63
2023-04-18T20:13:02.511Z,11.58
2023-04-18T20:15:33.310Z,11.51
2023-04-18T20:18:04.376Z,11.47
2023-04-18T20:20:35.087Z,11.43
2023-04-18T20:23:05.826Z,11.41
2023-04-18T20:25:38.086Z,11.36
2023-04-18T20:28:08.883Z,11.30
2023-04-18T20:30:39.645Z,11.28
2023-04-18T20:33:10.330Z,11.25
2023-04-18T20:35:41.053Z,11.23
2023-04-18T20:38:11.814Z,11.20
2023-04-18T20:40:42.917Z,11.18
2023-04-18T20:43:13.630Z,11.15
2023-04-18T20:45:44.351Z,11.15
2023-04-18T20:48:14.936Z,11.14
2023-04-18T20:50:45.814Z,11.12
2023-04-18T20:53:16.482Z,11.13
2023-04-18T20:55:47.250Z,11.13
2023-04-18T20:58:17.936Z,11.13
2023-04-18T21:00:48.608Z,11.13
2023-04-18T21:03:27.835Z,11.14
2023-04-18T21:05:57.097Z,11.13
2023-04-18T21:08:27.757Z,11.10
2023-04-18T21:10:58.438Z,11.07
2023-04-18T21:13:29.146Z,11.07
2023-04-18T21:15:59.860Z,11.05
2023-04-18T21:18:30.850Z,11.04
2023-04-18T21:20:59.994Z,11.01
2023-04-18T21:23:30.730Z,10.96
2023-04-18T21:26:01.553Z,10.92
2023-04-18T21:28:32.762Z,10.88
2023-04-18T21:31:03.478Z,10.84
2023-04-18T21:33:34.098Z,10.81
2023-04-18T21:36:05.356Z,10.74
2023-04-18T21:38:36.088Z,10.69
2023-04-18T21:41:06.997Z,10.68
2023-04-18T21:43:36.168Z,10.65
2023-04-18T21:46:07.171Z,10.61
2023-04-18T21:48:36.311Z,10.56
2023-04-18T21:51:07.464Z,10.54
2023-04-18T21:53:39.208Z,10.53
2023-04-18T21:56:11.900Z,10.51
2023-04-18T21:58:42.489Z,10.52
2023-04-18T22:01:13.488Z,10.51
2023-04-18T22:03:44.514Z,10.51
2023-04-18T22:06:13.808Z,10.49
2023-04-18T22:08:44.434Z,10.44
2023-04-18T22:11:15.169Z,10.42
2023-04-18T22:13:46.385Z,10.38
2023-04-18T22:16:17.305Z,10.36
2023-04-18T22:18:46.525Z,10.34
2023-04-18T22:21:17.317Z,10.31
2023-04-18T22:23:47.954Z,10.27
2023-04-18T22:26:18.589Z,10.23
2023-04-18T22:28:49.284Z,10.20
2023-04-18T22:31:20.100Z,10.19
2023-04-18T22:33:50.767Z,10.17
2023-04-18T22:36:21.450Z,10.15
2023-04-18T22:38:52.066Z,10.11
2023-04-18T22:41:22.765Z,10.11
2023-04-18T22:43:53.591Z,10.08
2023-04-18T22:46:24.404Z,10.04
2023-04-18T22:48:55.058Z,10.03
2023-04-18T22:51:25.786Z,10.02
2023-04-18T22:53:56.515Z,9.99
2023-04-18T22:56:27.197Z,9.97
2023-04-18T22:58:57.789Z,9.93
2023-04-18T23:01:28.558Z,9.90
2023-04-18T23:03:59.427Z,9.88
2023-04-18T23:06:30.479Z,9.87
2023-04-18T23:09:01.152Z,9.87
2023-04-18T23:11:31.858Z,9.85
2023-04-18T23:14:02.489Z,9.84
2023-04-18T23:16:33.082Z,9.82
2023-04-18T23:19:04.660Z,9.78
2023-04-18T23:21:35.310Z,9.75
2023-04-18T23:24:06.385Z,9.75
2023-04-18T23:26:37.026Z,9.73
2023-04-18T23:29:07.627Z,9.70
2023-04-18T23:31:38.356Z,9.67
2023-04-18T23:34:09.184Z,9.64
2023-04-18T23:36:39.945Z,9.62
2023-04-18T23:39:10.680Z,9.62
2023-04-18T23:41:41.305Z,9.60
2023-04-18T23:44:12.103Z,9.56
2023-04-18T23:46:42.852Z,9.51
2023-04-18T23:49:13.980Z,9.40
2023-04-18T23:51:44.714Z,9.31
2023-04-18T23:54:15.577Z,9.22
2023-04-18T23:56:46.268Z,9.13
2023-04-18T23:59:16.904Z,9.06
